sensor_id;sensor_type;location;lat;lon;timestamp;P1;durP1;ratioP1;P2;durP2;ratioP2
55575;SDS011;41437;45.478;9.116;2023-05-28T00:01:56;34.03;;;26.17;;
55575;SDS011;41437;45.478;9.116;2023-05-28T00:04:57;34.42;;;26.60;;
55575;SDS011;41437;45.478;9.116;2023-05-28T00:07:58;34.88;;;26.75;;
55575;SDS011;41437;45.478;9.116;2023-05-28T00:11:00;34.17;;;27.13;;
55575;SDS011;41437;45.478;9.116;2023-05-28T00:14:02;34.70;;;26.63;;
55575;SDS011;41437;45.478;9.116;2023-05-28T00:17:04;33.17;;;26.73;;
55575;SDS011;41437;45.478;9.116;2023-05-28T00:20:07;33.78;;;26.02;;
55575;SDS011;41437;45.478;9.116;2023-05-28T00:23:08;31.67;;;25.20;;
55575;SDS011;41437;45.478;9.116;2023-05-28T00:26:09;30.00;;;24.00;;
55575;SDS011;41437;45.478;9.116;2023-05-28T00:29:11;33.53;;;24.90;;
55575;SDS011;41437;45.478;9.116;2023-05-28T00:32:14;31.35;;;23.27;;
55575;SDS011;41437;45.478;9.116;2023-05-28T00:35:16;30.35;;;24.35;;
55575;SDS011;41437;45.478;9.116;2023-05-28T00:38:17;32.97;;;23.83;;
55575;SDS011;41437;45.478;9.116;2023-05-28T00:41:19;31.35;;;23.20;;
55575;SDS011;41437;45.478;9.116;2023-05-28T00:44:20;30.85;;;23.73;;
55575;SDS011;41437;45.478;9.116;2023-05-28T00:47:23;32.97;;;24.75;;
55575;SDS011;41437;45.478;9.116;2023-05-28T00:50:25;31.45;;;24.20;;
55575;SDS011;41437;45.478;9.116;2023-05-28T00:53:28;29.90;;;24.88;;
55575;SDS011;41437;45.478;9.116;2023-05-28T00:56:30;30.92;;;25.27;;
55575;SDS011;41437;45.478;9.116;2023-05-28T00:59:32;30.00;;;24.08;;
55575;SDS011;41437;45.478;9.116;2023-05-28T01:05:38;30.30;;;24.05;;
55575;SDS011;41437;45.478;9.116;2023-05-28T01:08:40;33.07;;;24.23;;
55575;SDS011;41437;45.478;9.116;2023-05-28T01:11:42;29.23;;;23.00;;
55575;SDS011;41437;45.478;9.116;2023-05-28T01:14:44;30.35;;;23.67;;
55575;SDS011;41437;45.478;9.116;2023-05-28T01:17:45;32.58;;;24.40;;
55575;SDS011;41437;45.478;9.116;2023-05-28T01:20:49;31.23;;;24.92;;
55575;SDS011;41437;45.478;9.116;2023-05-28T01:23:52;31.80;;;25.10;;
55575;SDS011;41437;45.478;9.116;2023-05-28T01:26:53;31.93;;;25.87;;
55575;SDS011;41437;45.478;9.116;2023-05-28T01:29:55;32.55;;;25.92;;
55575;SDS011;41437;45.478;9.116;2023-05-28T01:32:56;32.17;;;24.67;;
55575;SDS011;41437;45.478;9.116;2023-05-28T01:35:58;30.15;;;23.73;;
55575;SDS011;41437;45.478;9.116;2023-05-28T01:39:00;30.38;;;23.38;;
55575;SDS011;41437;45.478;9.116;2023-05-28T01:42:02;32.60;;;24.33;;
55575;SDS011;41437;45.478;9.116;2023-05-28T01:45:04;31.10;;;23.80;;
55575;SDS011;41437;45.478;9.116;2023-05-28T01:48:06;30.85;;;23.45;;
55575;SDS011;41437;45.478;9.116;2023-05-28T01:51:08;26.23;;;21.83;;
55575;SDS011;41437;45.478;9.116;2023-05-28T01:54:11;26.23;;;21.48;;
55575;SDS011;41437;45.478;9.116;2023-05-28T01:57:12;31.25;;;23.00;;
55575;SDS011;41437;45.478;9.116;2023-05-28T02:00:15;26.80;;;21.50;;
55575;SDS011;41437;45.478;9.116;2023-05-28T02:03:16;28.20;;;23.13;;
55575;SDS011;41437;45.478;9.116;2023-05-28T02:06:17;30.65;;;23.27;;
55575;SDS011;41437;45.478;9.116;2023-05-28T02:09:20;28.27;;;23.25;;
55575;SDS011;41437;45.478;9.116;2023-05-28T02:12:22;33.08;;;24.80;;
55575;SDS011;41437;45.478;9.116;2023-05-28T02:15:23;33.40;;;24.13;;
55575;SDS011;41437;45.478;9.116;2023-05-28T02:18:25;30.58;;;22.88;;
55575;SDS011;41437;45.478;9.116;2023-05-28T02:21:26;29.17;;;22.52;;
55575;SDS011;41437;45.478;9.116;2023-05-28T02:24:29;26.27;;;21.15;;
55575;SDS011;41437;45.478;9.116;2023-05-28T02:27:31;27.17;;;20.77;;
55575;SDS011;41437;45.478;9.116;2023-05-28T02:30:32;27.85;;;21.75;;
55575;SDS011;41437;45.478;9.116;2023-05-28T02:33:33;24.65;;;19.42;;
55575;SDS011;41437;45.478;9.116;2023-05-28T02:36:35;24.60;;;19.35;;
55575;SDS011;41437;45.478;9.116;2023-05-28T02:39:38;25.55;;;19.98;;
55575;SDS011;41437;45.478;9.116;2023-05-28T02:42:39;25.37;;;19.67;;
55575;SDS011;41437;45.478;9.116;2023-05-28T02:45:40;25.13;;;19.55;;
55575;SDS011;41437;45.478;9.116;2023-05-28T02:48:42;24.45;;;19.48;;
55575;SDS011;41437;45.478;9.116;2023-05-28T02:51:44;26.00;;;18.98;;
55575;SDS011;41437;45.478;9.116;2023-05-28T02:54:47;23.77;;;18.83;;
55575;SDS011;41437;45.478;9.116;2023-05-28T02:57:48;22.13;;;18.55;;
55575;SDS011;41437;45.478;9.116;2023-05-28T03:00:52;22.90;;;17.23;;
55575;SDS011;41437;45.478;9.116;2023-05-28T03:03:53;20.60;;;17.50;;
55575;SDS011;41437;45.478;9.116;2023-05-28T03:06:55;22.92;;;17.98;;
55575;SDS011;41437;45.478;9.116;2023-05-28T03:09:58;22.27;;;17.95;;
55575;SDS011;41437;45.478;9.116;2023-05-28T03:13:00;21.33;;;17.55;;
55575;SDS011;41437;45.478;9.116;2023-05-28T03:16:01;22.85;;;18.25;;
55575;SDS011;41437;45.478;9.116;2023-05-28T03:19:02;23.25;;;18.73;;
55575;SDS011;41437;45.478;9.116;2023-05-28T03:22:04;23.98;;;18.52;;
55575;SDS011;41437;45.478;9.116;2023-05-28T03:25:07;22.92;;;18.38;;
55575;SDS011;41437;45.478;9.116;2023-05-28T03:28:09;21.85;;;18.05;;
55575;SDS011;41437;45.478;9.116;2023-05-28T03:31:11;24.40;;;19.05;;
55575;SDS011;41437;45.478;9.116;2023-05-28T03:34:12;24.70;;;19.55;;
55575;SDS011;41437;45.478;9.116;2023-05-28T03:37:13;24.48;;;18.50;;
55575;SDS011;41437;45.478;9.116;2023-05-28T03:40:16;23.30;;;18.52;;
55575;SDS011;41437;45.478;9.116;2023-05-28T03:43:17;24.70;;;18.55;;
55575;SDS011;41437;45.478;9.116;2023-05-28T03:46:19;22.98;;;18.52;;
55575;SDS011;41437;45.478;9.116;2023-05-28T03:49:20;24.25;;;19.20;;
55575;SDS011;41437;45.478;9.116;2023-05-28T03:52:21;22.88;;;18.10;;
55575;SDS011;41437;45.478;9.116;2023-05-28T03:55:24;23.02;;;18.63;;
55575;SDS011;41437;45.478;9.116;2023-05-28T03:58:25;23.75;;;17.90;;
55575;SDS011;41437;45.478;9.116;2023-05-28T04:01:27;25.25;;;18.88;;
55575;SDS011;41437;45.478;9.116;2023-05-28T04:04:28;24.30;;;18.63;;
55575;SDS011;41437;45.478;9.116;2023-05-28T04:07:29;23.50;;;18.25;;
55575;SDS011;41437;45.478;9.116;2023-05-28T04:10:32;24.20;;;18.58;;
55575;SDS011;41437;45.478;9.116;2023-05-28T04:13:33;22.77;;;17.67;;
55575;SDS011;41437;45.478;9.116;2023-05-28T04:16:35;24.80;;;17.58;;
55575;SDS011;41437;45.478;9.116;2023-05-28T04:19:36;24.45;;;16.73;;
55575;SDS011;41437;45.478;9.116;2023-05-28T04:22:37;23.30;;;16.90;;
55575;SDS011;41437;45.478;9.116;2023-05-28T04:25:40;22.95;;;17.30;;
55575;SDS011;41437;45.478;9.116;2023-05-28T04:31:43;20.58;;;16.52;;
55575;SDS011;41437;45.478;9.116;2023-05-28T04:34:47;21.08;;;16.75;;
55575;SDS011;41437;45.478;9.116;2023-05-28T04:37:48;22.70;;;16.13;;
55575;SDS011;41437;45.478;9.116;2023-05-28T04:40:55;23.20;;;17.85;;
55575;SDS011;41437;45.478;9.116;2023-05-28T04:43:57;20.35;;;16.88;;
55575;SDS011;41437;45.478;9.116;2023-05-28T04:46:58;19.33;;;16.27;;
55575;SDS011;41437;45.478;9.116;2023-05-28T04:50:00;21.27;;;15.95;;
55575;SDS011;41437;45.478;9.116;2023-05-28T04:56:06;18.38;;;15.63;;
55575;SDS011;41437;45.478;9.116;2023-05-28T04:59:07;20.55;;;16.15;;
55575;SDS011;41437;45.478;9.116;2023-05-28T05:02:09;21.15;;;16.45;;
55575;SDS011;41437;45.478;9.116;2023-05-28T05:05:10;19.83;;;15.73;;
55575;SDS011;41437;45.478;9.116;2023-05-28T05:08:12;20.38;;;16.58;;
55575;SDS011;41437;45.478;9.116;2023-05-28T05:11:15;20.75;;;16.67;;
55575;SDS011;41437;45.478;9.116;2023-05-28T05:14:16;23.48;;;16.13;;
55575;SDS011;41437;45.478;9.116;2023-05-28T05:17:17;19.35;;;15.85;;
55575;SDS011;41437;45.478;9.116;2023-05-28T05:20:19;20.17;;;16.42;;
55575;SDS011;41437;45.478;9.116;2023-05-28T05:23:20;23.08;;;16.58;;
55575;SDS011;41437;45.478;9.116;2023-05-28T05:26:23;18.92;;;15.60;;
55575;SDS011;41437;45.478;9.116;2023-05-28T05:29:25;18.73;;;15.35;;
55575;SDS011;41437;45.478;9.116;2023-05-28T05:32:26;18.00;;;15.02;;
55575;SDS011;41437;45.478;9.116;2023-05-28T05:35:28;17.58;;;14.82;;
55575;SDS011;41437;45.478;9.116;2023-05-28T05:38:30;19.52;;;14.23;;
55575;SDS011;41437;45.478;9.116;2023-05-28T05:41:32;18.90;;;14.32;;
55575;SDS011;41437;45.478;9.116;2023-05-28T05:44:33;15.32;;;12.77;;
55575;SDS011;41437;45.478;9.116;2023-05-28T05:47:35;14.88;;;12.52;;
55575;SDS011;41437;45.478;9.116;2023-05-28T05:50:46;17.55;;;13.85;;
55575;SDS011;41437;45.478;9.116;2023-05-28T05:53:47;21.73;;;14.13;;
55575;SDS011;41437;45.478;9.116;2023-05-28T05:56:50;15.68;;;12.38;;
55575;SDS011;41437;45.478;9.116;2023-05-28T05:59:52;18.95;;;13.68;;
55575;SDS011;41437;45.478;9.116;2023-05-28T06:02:54;17.98;;;13.00;;
55575;SDS011;41437;45.478;9.116;2023-05-28T06:05:56;17.08;;;12.57;;
55575;SDS011;41437;45.478;9.116;2023-05-28T06:08:57;18.02;;;12.20;;
55575;SDS011;41437;45.478;9.116;2023-05-28T06:12:00;15.73;;;12.57;;
55575;SDS011;41437;45.478;9.116;2023-05-28T06:15:03;14.93;;;10.93;;
55575;SDS011;41437;45.478;9.116;2023-05-28T06:18:05;15.07;;;11.00;;
55575;SDS011;41437;45.478;9.116;2023-05-28T06:21:07;15.38;;;12.30;;
55575;SDS011;41437;45.478;9.116;2023-05-28T06:24:08;17.73;;;12.32;;
55575;SDS011;41437;45.478;9.116;2023-05-28T06:27:11;17.77;;;12.65;;
55575;SDS011;41437;45.478;9.116;2023-05-28T06:30:13;18.45;;;12.02;;
55575;SDS011;41437;45.478;9.116;2023-05-28T06:33:14;14.07;;;11.30;;
55575;SDS011;41437;45.478;9.116;2023-05-28T06:36:16;15.40;;;12.63;;
55575;SDS011;41437;45.478;9.116;2023-05-28T06:39:19;16.75;;;11.88;;
55575;SDS011;41437;45.478;9.116;2023-05-28T06:42:21;16.13;;;12.95;;
55575;SDS011;41437;45.478;9.116;2023-05-28T06:45:23;17.57;;;12.70;;
55575;SDS011;41437;45.478;9.116;2023-05-28T06:48:24;15.50;;;12.02;;
55575;SDS011;41437;45.478;9.116;2023-05-28T06:51:25;15.52;;;11.68;;
55575;SDS011;41437;45.478;9.116;2023-05-28T06:54:27;15.02;;;11.32;;
55575;SDS011;41437;45.478;9.116;2023-05-28T06:57:29;17.63;;;11.80;;
55575;SDS011;41437;45.478;9.116;2023-05-28T07:00:31;16.40;;;11.13;;
55575;SDS011;41437;45.478;9.116;2023-05-28T07:03:32;15.27;;;11.02;;
55575;SDS011;41437;45.478;9.116;2023-05-28T07:06:35;15.65;;;10.93;;
55575;SDS011;41437;45.478;9.116;2023-05-28T07:09:37;14.35;;;10.45;;
55575;SDS011;41437;45.478;9.116;2023-05-28T07:12:40;13.65;;;10.20;;
55575;SDS011;41437;45.478;9.116;2023-05-28T07:15:41;14.95;;;10.23;;
55575;SDS011;41437;45.478;9.116;2023-05-28T07:18:42;12.45;;;9.52;;
55575;SDS011;41437;45.478;9.116;2023-05-28T07:21:45;16.33;;;11.05;;
55575;SDS011;41437;45.478;9.116;2023-05-28T07:24:47;13.93;;;11.32;;
55575;SDS011;41437;45.478;9.116;2023-05-28T07:27:49;14.90;;;11.23;;
55575;SDS011;41437;45.478;9.116;2023-05-28T07:30:51;15.75;;;10.50;;
55575;SDS011;41437;45.478;9.116;2023-05-28T07:33:52;14.73;;;11.13;;
55575;SDS011;41437;45.478;9.116;2023-05-28T07:36:53;13.70;;;10.77;;
55575;SDS011;41437;45.478;9.116;2023-05-28T07:39:55;13.55;;;10.50;;
55575;SDS011;41437;45.478;9.116;2023-05-28T07:42:57;15.15;;;10.63;;
55575;SDS011;41437;45.478;9.116;2023-05-28T07:49:00;16.00;;;10.75;;
55575;SDS011;41437;45.478;9.116;2023-05-28T07:52:02;15.00;;;9.75;;
55575;SDS011;41437;45.478;9.116;2023-05-28T07:55:04;14.45;;;9.77;;
55575;SDS011;41437;45.478;9.116;2023-05-28T07:58:06;14.63;;;10.13;;
55575;SDS011;41437;45.478;9.116;2023-05-28T08:04:10;12.60;;;9.60;;
55575;SDS011;41437;45.478;9.116;2023-05-28T08:07:11;12.73;;;9.82;;
55575;SDS011;41437;45.478;9.116;2023-05-28T08:10:13;16.45;;;9.85;;
55575;SDS011;41437;45.478;9.116;2023-05-28T08:13:16;13.75;;;10.10;;
55575;SDS011;41437;45.478;9.116;2023-05-28T08:16:18;13.80;;;9.63;;
55575;SDS011;41437;45.478;9.116;2023-05-28T08:19:19;13.98;;;9.10;;
55575;SDS011;41437;45.478;9.116;2023-05-28T08:22:20;13.43;;;9.18;;
55575;SDS011;41437;45.478;9.116;2023-05-28T08:25:22;14.60;;;9.50;;
55575;SDS011;41437;45.478;9.116;2023-05-28T08:28:25;10.90;;;8.50;;
55575;SDS011;41437;45.478;9.116;2023-05-28T08:31:26;13.73;;;8.85;;
55575;SDS011;41437;45.478;9.116;2023-05-28T08:34:27;15.85;;;9.65;;
55575;SDS011;41437;45.478;9.116;2023-05-28T08:37:29;12.93;;;8.25;;
55575;SDS011;41437;45.478;9.116;2023-05-28T08:40:30;12.38;;;8.75;;
55575;SDS011;41437;45.478;9.116;2023-05-28T08:43:33;14.70;;;10.10;;
55575;SDS011;41437;45.478;9.116;2023-05-28T08:46:35;16.02;;;9.60;;
55575;SDS011;41437;45.478;9.116;2023-05-28T08:49:38;11.77;;;8.43;;
55575;SDS011;41437;45.478;9.116;2023-05-28T08:52:40;11.43;;;8.20;;
55575;SDS011;41437;45.478;9.116;2023-05-28T08:55:43;13.13;;;9.32;;
55575;SDS011;41437;45.478;9.116;2023-05-28T08:58:45;11.52;;;8.57;;
55575;SDS011;41437;45.478;9.116;2023-05-28T09:01:47;11.65;;;8.60;;
55575;SDS011;41437;45.478;9.116;2023-05-28T09:04:49;13.02;;;8.73;;
55575;SDS011;41437;45.478;9.116;2023-05-28T09:07:52;10.88;;;7.95;;
55575;SDS011;41437;45.478;9.116;2023-05-28T09:10:56;9.77;;;7.20;;
55575;SDS011;41437;45.478;9.116;2023-05-28T09:14:10;9.73;;;7.13;;
55575;SDS011;41437;45.478;9.116;2023-05-28T09:17:14;11.80;;;9.20;;
55575;SDS011;41437;45.478;9.116;2023-05-28T09:20:16;13.63;;;8.63;;
55575;SDS011;41437;45.478;9.116;2023-05-28T09:23:18;16.13;;;9.43;;
55575;SDS011;41437;45.478;9.116;2023-05-28T09:26:21;13.10;;;8.68;;
55575;SDS011;41437;45.478;9.116;2023-05-28T09:29:24;16.42;;;10.13;;
55575;SDS011;41437;45.478;9.116;2023-05-28T09:32:26;14.48;;;9.32;;
55575;SDS011;41437;45.478;9.116;2023-05-28T09:35:28;10.77;;;8.13;;
55575;SDS011;41437;45.478;9.116;2023-05-28T09:38:37;12.50;;;7.95;;
55575;SDS011;41437;45.478;9.116;2023-05-28T09:41:39;12.32;;;9.45;;
55575;SDS011;41437;45.478;9.116;2023-05-28T09:45:12;10.77;;;8.38;;
55575;SDS011;41437;45.478;9.116;2023-05-28T09:48:22;12.32;;;9.02;;
55575;SDS011;41437;45.478;9.116;2023-05-28T09:51:24;11.27;;;8.77;;
55575;SDS011;41437;45.478;9.116;2023-05-28T09:54:25;11.52;;;9.23;;
55575;SDS011;41437;45.478;9.116;2023-05-28T09:57:29;11.70;;;9.25;;
55575;SDS011;41437;45.478;9.116;2023-05-28T10:00:33;11.10;;;8.63;;
55575;SDS011;41437;45.478;9.116;2023-05-28T10:03:37;13.35;;;8.88;;
55575;SDS011;41437;45.478;9.116;2023-05-28T10:06:40;13.45;;;9.43;;
55575;SDS011;41437;45.478;9.116;2023-05-28T10:09:44;14.35;;;10.43;;
55575;SDS011;41437;45.478;9.116;2023-05-28T10:12:45;11.52;;;8.88;;
55575;SDS011;41437;45.478;9.116;2023-05-28T10:15:48;13.15;;;10.30;;
55575;SDS011;41437;45.478;9.116;2023-05-28T10:18:50;10.75;;;8.05;;
55575;SDS011;41437;45.478;9.116;2023-05-28T10:21:52;10.82;;;8.32;;
55575;SDS011;41437;45.478;9.116;2023-05-28T10:24:53;15.07;;;11.02;;
55575;SDS011;41437;45.478;9.116;2023-05-28T10:27:57;12.52;;;10.00;;
55575;SDS011;41437;45.478;9.116;2023-05-28T10:31:00;14.15;;;10.23;;
55575;SDS011;41437;45.478;9.116;2023-05-28T10:34:04;15.00;;;9.30;;
55575;SDS011;41437;45.478;9.116;2023-05-28T10:37:17;15.20;;;11.60;;
55575;SDS011;41437;45.478;9.116;2023-05-28T10:40:23;13.52;;;11.07;;
55575;SDS011;41437;45.478;9.116;2023-05-28T10:43:40;14.63;;;10.68;;
55575;SDS011;41437;45.478;9.116;2023-05-28T10:46:43;17.13;;;11.38;;
55575;SDS011;41437;45.478;9.116;2023-05-28T10:49:57;16.13;;;11.68;;
55575;SDS011;41437;45.478;9.116;2023-05-28T10:53:05;15.27;;;11.63;;
55575;SDS011;41437;45.478;9.116;2023-05-28T10:56:07;15.60;;;11.85;;
55575;SDS011;41437;45.478;9.116;2023-05-28T10:59:13;15.80;;;10.75;;
55575;SDS011;41437;45.478;9.116;2023-05-28T11:02:21;16.25;;;13.63;;
55575;SDS011;41437;45.478;9.116;2023-05-28T11:05:23;14.25;;;10.90;;
55575;SDS011;41437;45.478;9.116;2023-05-28T11:08:24;16.63;;;12.98;;
55575;SDS011;41437;45.478;9.116;2023-05-28T11:11:26;15.07;;;12.60;;
55575;SDS011;41437;45.478;9.116;2023-05-28T11:14:37;15.27;;;12.33;;
55575;SDS011;41437;45.478;9.116;2023-05-28T11:17:41;16.70;;;13.65;;
55575;SDS011;41437;45.478;9.116;2023-05-28T11:20:42;18.05;;;14.70;;
55575;SDS011;41437;45.478;9.116;2023-05-28T11:23:44;20.17;;;14.10;;
55575;SDS011;41437;45.478;9.116;2023-05-28T11:26:45;17.70;;;14.80;;
55575;SDS011;41437;45.478;9.116;2023-05-28T11:29:47;17.95;;;13.93;;
55575;SDS011;41437;45.478;9.116;2023-05-28T11:32:49;19.95;;;13.63;;
55575;SDS011;41437;45.478;9.116;2023-05-28T11:35:55;19.00;;;13.35;;
55575;SDS011;41437;45.478;9.116;2023-05-28T11:39:02;18.58;;;14.40;;
55575;SDS011;41437;45.478;9.116;2023-05-28T11:42:04;18.70;;;14.38;;
55575;SDS011;41437;45.478;9.116;2023-05-28T11:45:08;16.23;;;13.02;;
55575;SDS011;41437;45.478;9.116;2023-05-28T11:51:14;14.82;;;12.05;;
55575;SDS011;41437;45.478;9.116;2023-05-28T11:54:15;15.20;;;12.43;;
55575;SDS011;41437;45.478;9.116;2023-05-28T11:57:19;14.10;;;10.52;;
55575;SDS011;41437;45.478;9.116;2023-05-28T12:00:29;18.83;;;11.10;;
55575;SDS011;41437;45.478;9.116;2023-05-28T12:03:32;18.08;;;11.88;;
55575;SDS011;41437;45.478;9.116;2023-05-28T12:06:38;16.20;;;11.82;;
55575;SDS011;41437;45.478;9.116;2023-05-28T12:10:00;13.70;;;11.10;;
55575;SDS011;41437;45.478;9.116;2023-05-28T12:16:06;14.80;;;10.48;;
55575;SDS011;41437;45.478;9.116;2023-05-28T12:19:07;13.80;;;10.17;;
55575;SDS011;41437;45.478;9.116;2023-05-28T12:22:15;19.95;;;12.43;;
55575;SDS011;41437;45.478;9.116;2023-05-28T12:25:18;13.27;;;10.30;;
55575;SDS011;41437;45.478;9.116;2023-05-28T12:28:20;14.55;;;12.13;;
55575;SDS011;41437;45.478;9.116;2023-05-28T12:31:26;15.95;;;11.18;;
55575;SDS011;41437;45.478;9.116;2023-05-28T12:34:28;12.70;;;10.00;;
55575;SDS011;41437;45.478;9.116;2023-05-28T12:37:30;12.68;;;9.90;;
55575;SDS011;41437;45.478;9.116;2023-05-28T12:40:32;13.77;;;10.52;;
55575;SDS011;41437;45.478;9.116;2023-05-28T12:43:34;13.60;;;9.85;;
55575;SDS011;41437;45.478;9.116;2023-05-28T12:46:35;14.95;;;11.18;;
55575;SDS011;41437;45.478;9.116;2023-05-28T12:49:36;11.77;;;10.00;;
55575;SDS011;41437;45.478;9.116;2023-05-28T12:52:39;13.07;;;9.93;;
55575;SDS011;41437;45.478;9.116;2023-05-28T12:55:40;11.68;;;9.40;;
55575;SDS011;41437;45.478;9.116;2023-05-28T12:58:42;12.18;;;9.50;;
55575;SDS011;41437;45.478;9.116;2023-05-28T13:01:43;13.48;;;10.35;;
55575;SDS011;41437;45.478;9.116;2023-05-28T13:04:44;13.93;;;10.38;;
55575;SDS011;41437;45.478;9.116;2023-05-28T13:07:47;14.00;;;10.85;;
55575;SDS011;41437;45.478;9.116;2023-05-28T13:10:49;13.10;;;10.30;;
55575;SDS011;41437;45.478;9.116;2023-05-28T13:13:50;15.05;;;10.98;;
55575;SDS011;41437;45.478;9.116;2023-05-28T13:16:52;13.20;;;10.38;;
55575;SDS011;41437;45.478;9.116;2023-05-28T13:19:54;13.95;;;9.77;;
55575;SDS011;41437;45.478;9.116;2023-05-28T13:22:57;12.48;;;9.30;;
55575;SDS011;41437;45.478;9.116;2023-05-28T13:25:58;13.50;;;9.80;;
55575;SDS011;41437;45.478;9.116;2023-05-28T13:29:00;13.38;;;8.80;;
55575;SDS011;41437;45.478;9.116;2023-05-28T13:32:01;10.95;;;8.20;;
55575;SDS011;41437;45.478;9.116;2023-05-28T13:35:03;11.27;;;8.05;;
55575;SDS011;41437;45.478;9.116;2023-05-28T13:38:06;11.52;;;8.45;;
55575;SDS011;41437;45.478;9.116;2023-05-28T13:41:07;10.38;;;7.88;;
55575;SDS011;41437;45.478;9.116;2023-05-28T13:44:10;12.82;;;8.88;;
55575;SDS011;41437;45.478;9.116;2023-05-28T13:47:13;12.30;;;9.40;;
55575;SDS011;41437;45.478;9.116;2023-05-28T13:50:15;13.02;;;9.05;;
55575;SDS011;41437;45.478;9.116;2023-05-28T13:53:19;9.50;;;7.63;;
55575;SDS011;41437;45.478;9.116;2023-05-28T13:56:20;9.43;;;7.20;;
55575;SDS011;41437;45.478;9.116;2023-05-28T13:59:21;9.95;;;7.00;;
55575;SDS011;41437;45.478;9.116;2023-05-28T14:02:23;10.80;;;7.25;;
55575;SDS011;41437;45.478;9.116;2023-05-28T14:05:24;11.82;;;6.85;;
55575;SDS011;41437;45.478;9.116;2023-05-28T14:08:27;9.63;;;6.55;;
55575;SDS011;41437;45.478;9.116;2023-05-28T14:11:28;12.95;;;7.38;;
55575;SDS011;41437;45.478;9.116;2023-05-28T14:14:30;11.07;;;6.85;;
55575;SDS011;41437;45.478;9.116;2023-05-28T14:17:31;13.13;;;6.93;;
55575;SDS011;41437;45.478;9.116;2023-05-28T14:20:33;11.77;;;6.97;;
55575;SDS011;41437;45.478;9.116;2023-05-28T14:23:36;12.15;;;6.63;;
55575;SDS011;41437;45.478;9.116;2023-05-28T14:26:38;10.10;;;7.57;;
55575;SDS011;41437;45.478;9.116;2023-05-28T14:29:39;11.27;;;7.22;;
55575;SDS011;41437;45.478;9.116;2023-05-28T14:32:41;10.38;;;6.43;;
55575;SDS011;41437;45.478;9.116;2023-05-28T14:35:42;9.30;;;7.10;;
55575;SDS011;41437;45.478;9.116;2023-05-28T14:38:45;9.00;;;6.60;;
55575;SDS011;41437;45.478;9.116;2023-05-28T14:44:47;12.25;;;8.95;;
55575;SDS011;41437;45.478;9.116;2023-05-28T14:47:49;10.13;;;7.20;;
55575;SDS011;41437;45.478;9.116;2023-05-28T14:50:50;10.35;;;7.65;;
55575;SDS011;41437;45.478;9.116;2023-05-28T14:53:54;11.00;;;7.20;;
55575;SDS011;41437;45.478;9.116;2023-05-28T14:56:56;11.23;;;7.40;;
55575;SDS011;41437;45.478;9.116;2023-05-28T14:59:59;14.20;;;9.77;;
55575;SDS011;41437;45.478;9.116;2023-05-28T15:03:00;12.18;;;8.23;;
55575;SDS011;41437;45.478;9.116;2023-05-28T15:06:02;10.35;;;8.48;;
55575;SDS011;41437;45.478;9.116;2023-05-28T15:09:05;11.70;;;7.95;;
55575;SDS011;41437;45.478;9.116;2023-05-28T15:12:08;12.07;;;7.97;;
55575;SDS011;41437;45.478;9.116;2023-05-28T15:15:11;9.10;;;7.20;;
55575;SDS011;41437;45.478;9.116;2023-05-28T15:18:14;12.55;;;6.97;;
55575;SDS011;41437;45.478;9.116;2023-05-28T15:21:16;9.02;;;6.50;;
55575;SDS011;41437;45.478;9.116;2023-05-28T15:24:19;13.25;;;7.03;;
55575;SDS011;41437;45.478;9.116;2023-05-28T15:27:20;10.60;;;6.65;;
55575;SDS011;41437;45.478;9.116;2023-05-28T15:30:22;10.63;;;7.00;;
55575;SDS011;41437;45.478;9.116;2023-05-28T15:33:24;13.32;;;7.47;;
55575;SDS011;41437;45.478;9.116;2023-05-28T15:36:25;10.57;;;7.15;;
55575;SDS011;41437;45.478;9.116;2023-05-28T15:39:29;11.45;;;7.40;;
55575;SDS011;41437;45.478;9.116;2023-05-28T15:42:30;10.18;;;7.43;;
55575;SDS011;41437;45.478;9.116;2023-05-28T15:45:33;11.40;;;8.35;;
55575;SDS011;41437;45.478;9.116;2023-05-28T15:48:35;12.13;;;8.23;;
55575;SDS011;41437;45.478;9.116;2023-05-28T15:51:36;10.20;;;7.85;;
55575;SDS011;41437;45.478;9.116;2023-05-28T15:54:39;11.52;;;7.97;;
55575;SDS011;41437;45.478;9.116;2023-05-28T15:57:41;11.85;;;7.43;;
55575;SDS011;41437;45.478;9.116;2023-05-28T16:00:43;13.23;;;7.97;;
55575;SDS011;41437;45.478;9.116;2023-05-28T16:03:44;10.18;;;7.78;;
55575;SDS011;41437;45.478;9.116;2023-05-28T16:06:46;11.43;;;7.95;;
55575;SDS011;41437;45.478;9.116;2023-05-28T16:09:55;9.55;;;7.20;;
55575;SDS011;41437;45.478;9.116;2023-05-28T16:12:56;14.50;;;8.10;;
55575;SDS011;41437;45.478;9.116;2023-05-28T16:15:59;17.58;;;9.20;;
55575;SDS011;41437;45.478;9.116;2023-05-28T16:19:01;11.70;;;8.13;;
55575;SDS011;41437;45.478;9.116;2023-05-28T16:22:03;9.93;;;7.65;;
55575;SDS011;41437;45.478;9.116;2023-05-28T16:25:07;11.48;;;7.75;;
55575;SDS011;41437;45.478;9.116;2023-05-28T16:28:08;10.45;;;7.28;;
55575;SDS011;41437;45.478;9.116;2023-05-28T16:31:10;12.02;;;7.20;;
55575;SDS011;41437;45.478;9.116;2023-05-28T16:34:12;14.48;;;7.88;;
55575;SDS011;41437;45.478;9.116;2023-05-28T16:37:14;11.85;;;8.18;;
55575;SDS011;41437;45.478;9.116;2023-05-28T16:40:18;12.63;;;8.18;;
55575;SDS011;41437;45.478;9.116;2023-05-28T16:46:21;11.93;;;8.60;;
55575;SDS011;41437;45.478;9.116;2023-05-28T16:49:22;12.27;;;8.32;;
55575;SDS011;41437;45.478;9.116;2023-05-28T16:52:24;14.30;;;9.98;;
55575;SDS011;41437;45.478;9.116;2023-05-28T16:55:27;12.77;;;8.90;;
55575;SDS011;41437;45.478;9.116;2023-05-28T16:58:29;14.43;;;9.40;;
55575;SDS011;41437;45.478;9.116;2023-05-28T17:01:30;12.70;;;8.20;;
55575;SDS011;41437;45.478;9.116;2023-05-28T17:04:33;14.18;;;9.35;;
55575;SDS011;41437;45.478;9.116;2023-05-28T17:07:34;14.70;;;10.80;;
55575;SDS011;41437;45.478;9.116;2023-05-28T17:10:39;13.70;;;11.00;;
55575;SDS011;41437;45.478;9.116;2023-05-28T17:13:40;14.57;;;10.77;;
55575;SDS011;41437;45.478;9.116;2023-05-28T17:16:44;16.05;;;11.73;;
55575;SDS011;41437;45.478;9.116;2023-05-28T17:19:45;14.93;;;11.43;;
55575;SDS011;41437;45.478;9.116;2023-05-28T17:22:47;16.00;;;11.13;;
55575;SDS011;41437;45.478;9.116;2023-05-28T17:25:49;15.48;;;11.00;;
55575;SDS011;41437;45.478;9.116;2023-05-28T17:28:51;15.32;;;10.82;;
55575;SDS011;41437;45.478;9.116;2023-05-28T17:31:53;16.17;;;10.38;;
55575;SDS011;41437;45.478;9.116;2023-05-28T17:34:54;17.05;;;11.40;;
55575;SDS011;41437;45.478;9.116;2023-05-28T17:37:56;18.35;;;11.80;;
55575;SDS011;41437;45.478;9.116;2023-05-28T17:40:58;16.13;;;11.23;;
55575;SDS011;41437;45.478;9.116;2023-05-28T17:44:00;16.35;;;11.77;;
55575;SDS011;41437;45.478;9.116;2023-05-28T17:47:03;19.00;;;12.15;;
55575;SDS011;41437;45.478;9.116;2023-05-28T17:50:05;14.27;;;11.68;;
55575;SDS011;41437;45.478;9.116;2023-05-28T17:53:09;19.80;;;12.00;;
55575;SDS011;41437;45.478;9.116;2023-05-28T17:56:12;17.92;;;12.70;;
55575;SDS011;41437;45.478;9.116;2023-05-28T17:59:14;17.55;;;11.95;;
55575;SDS011;41437;45.478;9.116;2023-05-28T18:02:15;14.70;;;11.43;;
55575;SDS011;41437;45.478;9.116;2023-05-28T18:05:17;17.85;;;11.57;;
55575;SDS011;41437;45.478;9.116;2023-05-28T18:08:18;14.93;;;11.18;;
55575;SDS011;41437;45.478;9.116;2023-05-28T18:11:24;15.00;;;11.90;;
55575;SDS011;41437;45.478;9.116;2023-05-28T18:14:26;18.45;;;11.80;;
55575;SDS011;41437;45.478;9.116;2023-05-28T18:17:30;20.23;;;13.23;;
55575;SDS011;41437;45.478;9.116;2023-05-28T18:20:31;18.50;;;13.05;;